Time;durP1;ratioP1;P1;durP2;ratioP2;P2;SDS_P1;SDS_P2;PMS_P1;PMS_P2;Temp;Humidity;BMP_temperature;BMP_pressure;BME280_temperature;BME280_humidity;BME280_pressure;Samples;Min_cycle;Max_cycle;Signal;HPM_P1;HPM_P2
2023/06/19 00:01:09;;;;;;;;;;;20.40;76.70;;;;;;5078065;28;19908;-85
2023/06/19 00:03:35;;;;;;;;;;;20.40;76.70;;;;;;5072865;28;19909;-85
2023/06/19 00:06:01;;;;;;;;;;;20.30;77.00;;;;;;5072741;28;20007;-85
2023/06/19 00:08:26;;;;;;;;;;;20.30;77.70;;;;;;5075609;28;19973;-85
2023/06/19 00:10:52;;;;;;;;;;;20.20;77.60;;;;;;5080764;28;19908;-85
2023/06/19 00:13:18;;;;;;;;;;;20.10;78.10;;;;;;5070047;28;19908;-85
2023/06/19 00:15:44;;;;;;;;;;;20.10;78.30;;;;;;5058592;28;19965;-86
2023/06/19 00:18:10;;;;;;;;;;;20.20;78.40;;;;;;5070681;28;19909;-84
2023/06/19 00:20:36;;;;;;;;;;;20.10;78.40;;;;;;5071826;28;19920;-85
2023/06/19 00:23:01;;;;;;;;;;;20.10;79.00;;;;;;5068049;28;19920;-86
2023/06/19 00:25:27;;;;;;;;;;;20.10;79.10;;;;;;5068826;28;19913;-85
2023/06/19 00:27:53;;;;;;;;;;;20.10;79.50;;;;;;5075037;28;19978;-84
2023/06/19 00:30:18;;;;;;;;;;;20.10;80.50;;;;;;5066583;28;19917;-85
2023/06/19 00:32:47;;;;;;;;;;;20.00;80.70;;;;;;5058318;28;19908;-85
2023/06/19 00:35:17;;;;;;;;;;;19.80;81.60;;;;;;5077078;28;19920;-85
2023/06/19 00:37:46;;;;;;;;;;;19.80;82.60;;;;;;5077169;28;20270;-85
2023/06/19 00:40:31;;;;;;;;;;;19.70;83.30;;;;;;5060067;28;19942;-85
2023/06/19 00:42:57;;;;;;;;;;;19.70;83.20;;;;;;5072261;28;19934;-85
2023/06/19 00:45:24;;;;;;;;;;;19.70;84.00;;;;;;5077212;28;20350;-85
2023/06/19 00:47:50;;;;;;;;;;;19.60;84.10;;;;;;5076596;28;19916;-85
2023/06/19 00:50:16;;;;;;;;;;;19.60;84.40;;;;;;5058592;28;19915;-85
2023/06/19 00:52:42;;;;;;;;;;;19.60;85.20;;;;;;5076133;28;20256;-86
2023/06/19 00:55:09;;;;;;;;;;;19.60;86.00;;;;;;5058966;28;19916;-85
2023/06/19 00:57:35;;;;;;;;;;;19.60;86.20;;;;;;5058805;28;19908;-86
2023/06/19 01:00:04;;;;;;;;;;;19.70;86.00;;;;;;5060628;28;20271;-85
2023/06/19 01:02:30;;;;;;;;;;;19.80;86.00;;;;;;5081368;28;19954;-85
2023/06/19 01:04:56;;;;;;;;;;;20.00;87.40;;;;;;5070355;28;19909;-85
2023/06/19 01:07:40;;;;;;;;;;;20.10;87.40;;;;;;5090325;28;19921;-85
2023/06/19 01:10:07;;;;;;;;;;;20.20;88.30;;;;;;5066512;28;19912;-85
2023/06/19 01:12:39;;;;;;;;;;;20.30;89.50;;;;;;5073209;28;19926;-85
2023/06/19 01:15:07;;;;;;;;;;;20.40;90.00;;;;;;5081993;28;19972;-85
2023/06/19 01:17:34;;;;;;;;;;;20.50;90.30;;;;;;5069738;28;19999;-85
2023/06/19 01:20:00;;;;;;;;;;;20.60;90.60;;;;;;5093655;28;19914;-85
2023/06/19 01:22:29;;;;;;;;;;;20.70;90.90;;;;;;5074885;28;19918;-85
2023/06/19 01:24:58;;;;;;;;;;;20.80;91.00;;;;;;5074694;28;20005;-85
2023/06/19 01:27:25;;;;;;;;;;;20.80;91.20;;;;;;5075095;28;19964;-85
2023/06/19 01:29:51;;;;;;;;;;;20.80;91.50;;;;;;5058682;28;20260;-84
2023/06/19 01:32:32;;;;;;;;;;;20.70;91.70;;;;;;5075007;28;20003;-83
2023/06/19 01:34:59;;;;;;;;;;;20.70;92.10;;;;;;5075324;28;20382;-85
2023/06/19 01:37:28;;;;;;;;;;;20.60;92.80;;;;;;5075072;28;19916;-85
2023/06/19 01:39:56;;;;;;;;;;;20.50;93.40;;;;;;5058251;28;19919;-85
2023/06/19 01:42:22;;;;;;;;;;;20.40;94.30;;;;;;5074968;28;19909;-86
2023/06/19 01:44:48;;;;;;;;;;;20.40;94.80;;;;;;5075127;28;19912;-85
2023/06/19 01:47:19;;;;;;;;;;;20.30;95.40;;;;;;5074892;28;20007;-86
2023/06/19 01:49:48;;;;;;;;;;;20.20;96.10;;;;;;5058131;28;19944;-85
2023/06/19 01:52:13;;;;;;;;;;;20.10;96.90;;;;;;5057926;28;19912;-85
2023/06/19 01:54:39;;;;;;;;;;;20.00;97.80;;;;;;5074974;28;19912;-86
2023/06/19 01:57:05;;;;;;;;;;;19.90;98.70;;;;;;5058077;28;19951;-85
2023/06/19 01:59:33;;;;;;;;;;;19.80;99.50;;;;;;5058283;28;19909;-85
2023/06/19 02:01:59;;;;;;;;;;;19.70;99.90;;;;;;5057735;28;19909;-85
2023/06/19 02:04:25;;;;;;;;;;;19.60;99.90;;;;;;5073764;28;19909;-85
2023/06/19 02:06:50;;;;;;;;;;;19.60;99.90;;;;;;5074621;28;19999;-85
2023/06/19 02:09:16;;;;;;;;;;;19.60;99.90;;;;;;5074400;28;20288;-86
2023/06/19 02:11:41;;;;;;;;;;;19.50;99.90;;;;;;5074464;28;19954;-85
2023/06/19 02:14:08;;;;;;;;;;;19.40;99.90;;;;;;5074338;28;19995;-85
2023/06/19 02:16:34;;;;;;;;;;;19.40;99.90;;;;;;5057711;28;19960;-86
2023/06/19 02:19:00;;;;;;;;;;;19.40;99.90;;;;;;5074338;28;19957;-85
2023/06/19 02:21:25;;;;;;;;;;;19.30;99.90;;;;;;5074072;28;19947;-85
2023/06/19 02:23:51;;;;;;;;;;;19.30;99.90;;;;;;5085152;28;20333;-84
2023/06/19 02:26:16;;;;;;;;;;;19.20;99.90;;;;;;5073829;28;19912;-84
2023/06/19 02:28:42;;;;;;;;;;;19.20;99.90;;;;;;5067431;28;19916;-84
2023/06/19 02:31:08;;;;;;;;;;;19.10;99.90;;;;;;5057176;28;19908;-84
2023/06/19 02:33:33;;;;;;;;;;;19.10;99.90;;;;;;5090574;28;19970;-84
2023/06/19 02:35:59;;;;;;;;;;;19.10;99.90;;;;;;5074031;28;19908;-85
2023/06/19 02:38:25;;;;;;;;;;;19.10;99.90;;;;;;5072888;28;20557;-85
2023/06/19 02:40:50;;;;;;;;;;;19.10;99.90;;;;;;5057141;28;19912;-85
2023/06/19 02:43:16;;;;;;;;;;;19.20;99.90;;;;;;5064253;28;19959;-84
2023/06/19 02:45:42;;;;;;;;;;;19.20;99.90;;;;;;5073801;28;20010;-85
2023/06/19 02:48:07;;;;;;;;;;;19.30;99.90;;;;;;5073233;28;19912;-84
2023/06/19 02:50:34;;;;;;;;;;;19.30;99.90;;;;;;5073598;28;19914;-85
2023/06/19 02:52:59;;;;;;;;;;;19.30;99.90;;;;;;5057183;28;19908;-85
2023/06/19 02:55:25;;;;;;;;;;;19.30;99.90;;;;;;5056290;28;19978;-84
2023/06/19 02:57:51;;;;;;;;;;;19.20;99.90;;;;;;5056877;28;19909;-85
2023/06/19 03:00:17;;;;;;;;;;;19.20;99.90;;;;;;5056775;28;19909;-85
2023/06/19 03:02:44;;;;;;;;;;;19.20;99.90;;;;;;5056424;28;19908;-85
2023/06/19 03:05:10;;;;;;;;;;;19.20;99.90;;;;;;5057435;28;20249;-85
2023/06/19 03:07:37;;;;;;;;;;;19.20;99.90;;;;;;5056095;28;19916;-85
2023/06/19 03:10:32;;;;;;;;;;;19.20;99.90;;;;;;5056300;28;19908;-84
2023/06/19 03:12:58;;;;;;;;;;;19.10;99.90;;;;;;5072875;28;19907;-85
2023/06/19 03:15:24;;;;;;;;;;;19.00;99.90;;;;;;5073320;28;19916;-85
2023/06/19 03:17:52;;;;;;;;;;;18.90;99.90;;;;;;5053825;28;19913;-89
2023/06/19 03:20:18;;;;;;;;;;;18.70;99.90;;;;;;5071301;28;20015;-88
2023/06/19 03:22:52;;;;;;;;;;;18.50;99.90;;;;;;5074352;28;20357;-88
2023/06/19 03:25:19;;;;;;;;;;;18.40;99.90;;;;;;5074921;28;19954;-88
2023/06/19 03:27:46;;;;;;;;;;;18.30;99.90;;;;;;5058352;28;19916;-88
2023/06/19 03:30:12;;;;;;;;;;;18.20;99.90;;;;;;5058439;28;19999;-88
2023/06/19 03:32:40;;;;;;;;;;;18.20;99.90;;;;;;5079186;28;20002;-88
2023/06/19 03:35:08;;;;;;;;;;;18.20;99.90;;;;;;5075718;28;19927;-88
2023/06/19 03:37:41;;;;;;;;;;;18.30;99.90;;;;;;5074635;28;20021;-89
2023/06/19 03:40:09;;;;;;;;;;;18.50;99.90;;;;;;5074581;28;19946;-88
2023/06/19 03:42:39;;;;;;;;;;;18.70;99.90;;;;;;5074465;28;19916;-87
2023/06/19 03:45:05;;;;;;;;;;;18.80;99.90;;;;;;5074539;28;20421;-88
2023/06/19 03:47:31;;;;;;;;;;;18.90;99.90;;;;;;5057534;28;19912;-88
2023/06/19 03:49:56;;;;;;;;;;;18.90;99.90;;;;;;5074033;28;19908;-88
2023/06/19 03:52:22;;;;;;;;;;;18.90;99.90;;;;;;5057508;28;19924;-90
2023/06/19 03:54:49;;;;;;;;;;;18.90;99.90;;;;;;5074470;28;19909;-88
2023/06/19 03:57:15;;;;;;;;;;;18.80;99.90;;;;;;5074025;28;20552;-88
2023/06/19 03:59:40;;;;;;;;;;;18.80;99.90;;;;;;5073476;28;19909;-88
2023/06/19 04:02:06;;;;;;;;;;;18.80;99.90;;;;;;5056979;28;19908;-88
2023/06/19 04:04:31;;;;;;;;;;;18.80;99.90;;;;;;5075089;28;19988;-89
2023/06/19 04:06:59;;;;;;;;;;;18.80;99.90;;;;;;5057458;28;19970;-88
2023/06/19 04:09:24;;;;;;;;;;;18.80;99.90;;;;;;5076824;28;20367;-89
2023/06/19 04:11:50;;;;;;;;;;;18.90;99.90;;;;;;5074068;28;19916;-88
2023/06/19 04:14:16;;;;;;;;;;;18.80;99.90;;;;;;5074820;28;19908;-88
2023/06/19 04:16:41;;;;;;;;;;;18.90;99.90;;;;;;5057660;28;19913;-88
2023/06/19 04:19:09;;;;;;;;;;;18.90;99.90;;;;;;5091650;28;20002;-88
2023/06/19 04:21:37;;;;;;;;;;;18.90;99.90;;;;;;5074730;28;19947;-88
2023/06/19 04:24:08;;;;;;;;;;;18.90;99.90;;;;;;5075598;28;19912;-89
2023/06/19 04:26:35;;;;;;;;;;;19.00;99.90;;;;;;5077547;28;19920;-88
2023/06/19 04:29:01;;;;;;;;;;;19.00;99.90;;;;;;5078136;28;19991;-89
2023/06/19 04:31:28;;;;;;;;;;;19.10;99.90;;;;;;5078032;28;19947;-89
2023/06/19 04:33:56;;;;;;;;;;;19.10;99.90;;;;;;5077614;28;19922;-88
2023/06/19 04:36:22;;;;;;;;;;;19.00;99.90;;;;;;5076846;28;20010;-88
2023/06/19 04:38:48;;;;;;;;;;;18.90;99.90;;;;;;5065954;28;19912;-88
2023/06/19 04:41:13;;;;;;;;;;;18.90;99.90;;;;;;5081198;28;19923;-88
2023/06/19 04:43:41;;;;;;;;;;;18.90;99.90;;;;;;5077666;28;19908;-89
2023/06/19 04:46:07;;;;;;;;;;;18.90;99.90;;;;;;5077157;28;19915;-88
2023/06/19 04:48:35;;;;;;;;;;;18.80;99.90;;;;;;5093712;28;19912;-88
2023/06/19 04:51:01;;;;;;;;;;;18.60;99.90;;;;;;5077985;28;19909;-88
2023/06/19 04:53:27;;;;;;;;;;;18.40;99.90;;;;;;5077395;28;19911;-87
2023/06/19 04:55:54;;;;;;;;;;;18.30;99.90;;;;;;5060850;28;19958;-88
2023/06/19 04:58:23;;;;;;;;;;;18.20;99.90;;;;;;5077710;28;19955;-86
2023/06/19 05:00:52;;;;;;;;;;;18.30;99.90;;;;;;5078510;28;19908;-88
2023/06/19 05:03:18;;;;;;;;;;;18.30;99.90;;;;;;5077377;28;19909;-88
2023/06/19 05:05:43;;;;;;;;;;;18.40;99.90;;;;;;5077493;28;19958;-88
2023/06/19 05:08:09;;;;;;;;;;;18.40;99.90;;;;;;5077574;28;19919;-87
2023/06/19 05:10:35;;;;;;;;;;;18.50;99.90;;;;;;5077002;28;19991;-89
2023/06/19 05:13:01;;;;;;;;;;;18.50;99.90;;;;;;5076816;28;20364;-88
2023/06/19 05:15:27;;;;;;;;;;;18.60;99.90;;;;;;5077295;28;19908;-88
2023/06/19 05:17:53;;;;;;;;;;;18.70;99.90;;;;;;5060493;28;19911;-88
2023/06/19 05:20:19;;;;;;;;;;;18.80;99.90;;;;;;5061398;28;20367;-89
2023/06/19 05:22:45;;;;;;;;;;;18.90;99.90;;;;;;5080007;28;19931;-86
2023/06/19 05:25:10;;;;;;;;;;;18.90;99.90;;;;;;5060714;28;20011;-87
2023/06/19 05:27:36;;;;;;;;;;;19.00;99.90;;;;;;5076650;28;20375;-88
2023/06/19 05:30:01;;;;;;;;;;;19.00;99.90;;;;;;5059285;28;20344;-87
2023/06/19 05:32:27;;;;;;;;;;;19.10;99.90;;;;;;5076192;28;19999;-87
2023/06/19 05:34:53;;;;;;;;;;;18.90;99.90;;;;;;5076182;28;19908;-88
2023/06/19 05:37:18;;;;;;;;;;;19.00;99.90;;;;;;5075818;28;19981;-87
2023/06/19 05:39:44;;;;;;;;;;;18.80;99.90;;;;;;5059675;28;20371;-87
2023/06/19 05:42:10;;;;;;;;;;;18.80;99.90;;;;;;5075831;28;20390;-87
2023/06/19 05:44:35;;;;;;;;;;;18.80;99.90;;;;;;5075628;28;19909;-87
2023/06/19 05:47:01;;;;;;;;;;;19.00;99.90;;;;;;5053261;28;20018;-87
2023/06/19 05:49:26;;;;;;;;;;;19.20;99.90;;;;;;5059429;28;20000;-87
2023/06/19 05:51:52;;;;;;;;;;;19.20;99.90;;;;;;5075631;28;19908;-86
2023/06/19 05:54:17;;;;;;;;;;;19.30;99.90;;;;;;5059596;28;20003;-87
2023/06/19 05:57:08;;;;;;;;;;;19.20;99.90;;;;;;5075801;28;19912;-87
2023/06/19 05:59:33;;;;;;;;;;;19.10;99.90;;;;;;5062618;28;20007;-87
2023/06/19 06:01:59;;;;;;;;;;;19.30;99.90;;;;;;5052780;28;19966;-87
2023/06/19 06:04:25;;;;;;;;;;;19.30;99.90;;;;;;5072424;28;20007;-87
2023/06/19 06:07:11;;;;;;;;;;;19.20;99.90;;;;;;5082003;28;20391;-88
2023/06/19 06:09:36;;;;;;;;;;;19.30;99.90;;;;;;5086656;28;19912;-89
2023/06/19 06:12:02;;;;;;;;;;;19.50;99.90;;;;;;5058109;28;20462;-87
2023/06/19 06:14:28;;;;;;;;;;;19.60;99.90;;;;;;5067913;28;20007;-88
2023/06/19 06:16:53;;;;;;;;;;;19.70;99.90;;;;;;5070457;28;19919;-88
2023/06/19 06:19:21;;;;;;;;;;;19.80;99.90;;;;;;5071925;28;19912;-89
2023/06/19 06:21:47;;;;;;;;;;;20.00;99.90;;;;;;5064629;28;19908;-87
2023/06/19 06:24:13;;;;;;;;;;;20.00;99.90;;;;;;5052676;28;19916;-87
2023/06/19 06:26:39;;;;;;;;;;;20.10;99.90;;;;;;5060978;28;19913;-88
2023/06/19 06:29:04;;;;;;;;;;;20.20;99.90;;;;;;5069700;28;20011;-88
2023/06/19 06:31:30;;;;;;;;;;;20.30;99.90;;;;;;5065090;28;19909;-88
2023/06/19 06:34:14;;;;;;;;;;;20.50;99.90;;;;;;5074229;28;19908;-88
2023/06/19 06:36:40;;;;;;;;;;;20.50;99.90;;;;;;5076453;28;20273;-88
2023/06/19 06:39:05;;;;;;;;;;;20.50;99.90;;;;;;5067260;28;19908;-87
2023/06/19 06:41:31;;;;;;;;;;;20.70;99.90;;;;;;5060776;28;20352;-89
2023/06/19 06:43:57;;;;;;;;;;;20.80;99.90;;;;;;5053943;28;19908;-88
2023/06/19 06:46:23;;;;;;;;;;;20.90;99.90;;;;;;5073386;28;20415;-89
2023/06/19 06:48:49;;;;;;;;;;;21.00;99.90;;;;;;5057142;28;19954;-88
2023/06/19 06:51:15;;;;;;;;;;;21.20;99.90;;;;;;5054233;28;19947;-88
2023/06/19 06:53:40;;;;;;;;;;;21.30;99.90;;;;;;5069105;28;19909;-88
2023/06/19 06:56:09;;;;;;;;;;;21.30;99.90;;;;;;5056353;28;20249;-88
2023/06/19 06:58:35;;;;;;;;;;;21.40;99.90;;;;;;5069021;28;20291;-89
2023/06/19 07:01:00;;;;;;;;;;;21.40;99.90;;;;;;5069026;28;19908;-87
2023/06/19 07:03:29;;;;;;;;;;;21.40;99.90;;;;;;5066008;28;19971;-87
2023/06/19 07:05:54;;;;;;;;;;;21.40;99.90;;;;;;5091751;28;19923;-88
2023/06/19 07:08:20;;;;;;;;;;;21.90;99.90;;;;;;5075498;28;20298;-88
2023/06/19 07:10:46;;;;;;;;;;;22.20;99.90;;;;;;5070982;28;19908;-87
2023/06/19 07:13:11;;;;;;;;;;;22.70;99.90;;;;;;5074323;28;19908;-86
2023/06/19 07:15:37;;;;;;;;;;;23.40;99.90;;;;;;5059392;28;19913;-86
2023/06/19 07:18:02;;;;;;;;;;;23.80;99.90;;;;;;5070950;28;20031;-87
2023/06/19 07:20:28;;;;;;;;;;;24.10;99.90;;;;;;5079705;28;19908;-88
2023/06/19 07:22:54;;;;;;;;;;;24.70;99.90;;;;;;5067362;28;20263;-88
2023/06/19 07:25:20;;;;;;;;;;;24.80;99.90;;;;;;5071306;28;19919;-88
2023/06/19 07:27:46;;;;;;;;;;;25.10;99.90;;;;;;5081754;28;20003;-88
2023/06/19 07:30:11;;;;;;;;;;;25.60;99.90;;;;;;5059895;28;19974;-88
2023/06/19 07:32:37;;;;;;;;;;;26.00;99.90;;;;;;5068042;28;19909;-88
2023/06/19 07:35:03;;;;;;;;;;;26.20;99.90;;;;;;5055006;28;20270;-88
2023/06/19 07:37:29;;;;;;;;;;;25.80;99.90;;;;;;5052078;28;19915;-89
2023/06/19 07:39:55;;;;;;;;;;;25.50;99.90;;;;;;5055817;28;19999;-88
2023/06/19 07:42:21;;;;;;;;;;;25.50;99.90;;;;;;5072595;28;19917;-88
2023/06/19 07:44:47;;;;;;;;;;;24.90;99.90;;;;;;5073832;28;19974;-88
2023/06/19 07:47:13;;;;;;;;;;;24.10;99.90;;;;;;5056946;28;19912;-88
2023/06/19 07:49:39;;;;;;;;;;;23.30;99.90;;;;;;5069824;28;20329;-88
2023/06/19 07:52:05;;;;;;;;;;;23.10;99.90;;;;;;5064872;28;20003;-89
2023/06/19 07:54:33;;;;;;;;;;;22.90;99.90;;;;;;5063899;28;20609;-87
2023/06/19 07:56:59;;;;;;;;;;;22.60;99.90;;;;;;5065215;28;19905;-88
2023/06/19 07:59:24;;;;;;;;;;;22.90;99.90;;;;;;5054952;28;19909;-88
2023/06/19 08:01:50;;;;;;;;;;;23.40;99.90;;;;;;5062499;28;20271;-88
2023/06/19 08:04:15;;;;;;;;;;;23.80;99.90;;;;;;5086045;28;19908;-88
2023/06/19 08:06:42;;;;;;;;;;;24.10;99.90;;;;;;5076898;28;20328;-89
2023/06/19 08:09:08;;;;;;;;;;;25.20;99.90;;;;;;5083655;28;19908;-88
2023/06/19 08:11:33;;;;;;;;;;;26.00;99.90;;;;;;5076848;28;20293;-89
2023/06/19 08:13:59;;;;;;;;;;;27.10;99.90;;;;;;5066225;28;20311;-88
2023/06/19 08:16:25;;;;;;;;;;;27.50;99.90;;;;;;5064279;28;19919;-88
2023/06/19 08:18:51;;;;;;;;;;;27.40;99.90;;;;;;5083516;28;19957;-87
2023/06/19 08:21:17;;;;;;;;;;;27.30;99.90;;;;;;5074462;28;19912;-87
2023/06/19 08:23:43;;;;;;;;;;;26.00;99.90;;;;;;5083868;28;20371;-87
2023/06/19 08:26:10;;;;;;;;;;;25.60;99.90;;;;;;5084907;28;19913;-88
2023/06/19 08:28:57;;;;;;;;;;;24.90;99.90;;;;;;5078263;28;20007;-88
2023/06/19 08:31:27;;;;;;;;;;;25.10;99.90;;;;;;5079375;28;19915;-89
2023/06/19 08:34:06;;;;;;;;;;;25.00;99.90;;;;;;5077347;28;19908;-88
2023/06/19 08:36:32;;;;;;;;;;;24.30;99.90;;;;;;5061679;28;19908;-88
2023/06/19 08:38:58;;;;;;;;;;;23.70;99.90;;;;;;5058876;28;19962;-89
2023/06/19 08:41:24;;;;;;;;;;;23.60;99.90;;;;;;5087801;28;19916;-87
2023/06/19 08:43:50;;;;;;;;;;;24.50;99.90;;;;;;5078605;28;19908;-88
2023/06/19 08:46:17;;;;;;;;;;;25.70;99.90;;;;;;5078409;28;19905;-86
2023/06/19 08:48:43;;;;;;;;;;;25.30;99.90;;;;;;5077607;28;19927;-88
2023/06/19 08:51:36;;;;;;;;;;;25.00;99.90;;;;;;5062722;28;19908;-88
2023/06/19 08:54:05;;;;;;;;;;;25.90;99.90;;;;;;5095220;28;19984;-87
2023/06/19 08:56:34;;;;;;;;;;;26.70;99.90;;;;;;5078184;28;19914;-87
2023/06/19 08:59:12;;;;;;;;;;;25.80;99.90;;;;;;5064071;28;19915;-87
2023/06/19 09:01:38;;;;;;;;;;;25.00;99.90;;;;;;5077504;28;19947;-87
2023/06/19 09:04:11;;;;;;;;;;;24.60;99.90;;;;;;5069721;28;19912;-87
2023/06/19 09:06:47;;;;;;;;;;;24.30;99.90;;;;;;5077220;28;19908;-88
2023/06/19 09:09:14;;;;;;;;;;;24.60;99.90;;;;;;5072083;28;19913;-88
2023/06/19 09:11:44;;;;;;;;;;;24.60;99.90;;;;;;5060762;28;19908;-88
2023/06/19 09:14:10;;;;;;;;;;;24.60;99.90;;;;;;5087294;28;20383;-87
2023/06/19 09:16:40;;;;;;;;;;;24.60;99.90;;;;;;5078401;28;19915;-87
2023/06/19 09:19:07;;;;;;;;;;;24.70;99.90;;;;;;5077475;28;20367;-87
2023/06/19 09:21:35;;;;;;;;;;;25.00;99.90;;;;;;5083663;28;20357;-86
2023/06/19 09:24:06;;;;;;;;;;;24.90;99.90;;;;;;5067667;28;19946;-87
2023/06/19 09:26:32;;;;;;;;;;;25.00;99.90;;;;;;5054623;28;20344;-87
2023/06/19 09:28:57;;;;;;;;;;;24.80;99.90;;;;;;5057539;28;19919;-87
2023/06/19 09:31:33;;;;;;;;;;;24.10;99.90;;;;;;5068536;28;20672;-87
2023/06/19 09:33:59;;;;;;;;;;;24.00;99.90;;;;;;5084237;28;19941;-87
2023/06/19 09:36:26;;;;;;;;;;;24.00;99.90;;;;;;5073344;28;20359;-87
2023/06/19 09:38:52;;;;;;;;;;;24.10;99.90;;;;;;5091598;28;20003;-87
2023/06/19 09:41:48;;;;;;;;;;;24.70;99.90;;;;;;5077045;28;19979;-88
2023/06/19 09:44:14;;;;;;;;;;;25.50;99.90;;;;;;5071877;28;19916;-88
2023/06/19 09:46:44;;;;;;;;;;;26.70;99.90;;;;;;5067324;28;19932;-87
2023/06/19 09:49:11;;;;;;;;;;;26.50;99.90;;;;;;5090743;28;19919;-88
2023/06/19 09:51:37;;;;;;;;;;;26.60;99.90;;;;;;5068600;28;19909;-86
2023/06/19 09:54:04;;;;;;;;;;;26.50;99.90;;;;;;5090546;28;19942;-87
2023/06/19 09:56:30;;;;;;;;;;;26.90;99.90;;;;;;5069757;28;19916;-87
2023/06/19 09:59:00;;;;;;;;;;;28.00;99.90;;;;;;5080172;28;20355;-87
2023/06/19 10:01:30;;;;;;;;;;;28.40;99.90;;;;;;5080615;28;19908;-87
2023/06/19 10:04:06;;;;;;;;;;;27.70;99.90;;;;;;5084590;28;19998;-88
2023/06/19 10:06:32;;;;;;;;;;;27.00;99.90;;;;;;5055186;28;19952;-87
2023/06/19 10:09:06;;;;;;;;;;;26.40;99.90;;;;;;5080152;28;19939;-88
2023/06/19 10:11:48;;;;;;;;;;;26.90;99.90;;;;;;5072951;28;19931;-87
2023/06/19 10:14:14;;;;;;;;;;;27.80;99.90;;;;;;5063891;28;19908;-88
2023/06/19 10:16:42;;;;;;;;;;;29.20;99.90;;;;;;5057873;28;19991;-89
2023/06/19 10:19:13;;;;;;;;;;;29.50;99.90;;;;;;5076555;28;19909;-87
2023/06/19 10:21:52;;;;;;;;;;;28.90;99.90;;;;;;5080200;28;19912;-88
2023/06/19 10:24:19;;;;;;;;;;;28.20;99.90;;;;;;5082931;28;19907;-86
2023/06/19 10:27:05;;;;;;;;;;;28.40;99.90;;;;;;5051464;28;19917;-86
2023/06/19 10:29:40;;;;;;;;;;;28.40;99.90;;;;;;5077657;28;19960;-87
2023/06/19 10:32:06;;;;;;;;;;;27.90;99.90;;;;;;5070574;28;20372;-87
2023/06/19 10:34:35;;;;;;;;;;;27.80;99.90;;;;;;5092208;28;19908;-86
2023/06/19 10:37:00;;;;;;;;;;;28.00;99.90;;;;;;5064135;28;19908;-87
2023/06/19 10:39:26;;;;;;;;;;;28.30;99.90;;;;;;5076464;28;20370;-88
2023/06/19 10:41:52;;;;;;;;;;;28.80;99.90;;;;;;5081990;28;19955;-86
2023/06/19 10:44:17;;;;;;;;;;;28.30;99.90;;;;;;5068401;28;19916;-87
2023/06/19 10:46:43;;;;;;;;;;;28.60;99.90;;;;;;5078486;28;19930;-87
2023/06/19 10:49:13;;;;;;;;;;;28.50;99.90;;;;;;5061382;28;19935;-87
2023/06/19 10:51:39;;;;;;;;;;;28.20;99.90;;;;;;5059842;28;19909;-87
2023/06/19 10:54:06;;;;;;;;;;;28.00;99.90;;;;;;5076888;28;19908;-87
2023/06/19 10:56:34;;;;;;;;;;;28.10;99.90;;;;;;5062786;28;19909;-87
2023/06/19 10:59:05;;;;;;;;;;;28.20;99.90;;;;;;5060989;28;19904;-87
2023/06/19 11:01:32;;;;;;;;;;;28.80;99.90;;;;;;5055513;28;19909;-87
2023/06/19 11:03:58;;;;;;;;;;;29.50;99.90;;;;;;5061426;28;19914;-88
2023/06/19 11:09:52;;;;;;;;;;;30.00;99.90;;;;;;5078113;28;19923;-87
2023/06/19 11:12:52;;;;;;;;;;;29.60;99.90;;;;;;5060229;28;19913;-88
2023/06/19 11:15:29;;;;;;;;;;;30.00;99.90;;;;;;5076388;28;19908;-88
2023/06/19 11:17:55;;;;;;;;;;;30.50;99.90;;;;;;5059194;28;19909;-88
2023/06/19 11:20:21;;;;;;;;;;;30.70;99.90;;;;;;5076230;28;20296;-85
2023/06/19 11:22:47;;;;;;;;;;;30.40;99.90;;;;;;5063954;28;19911;-88
2023/06/19 11:25:12;;;;;;;;;;;30.50;99.90;;;;;;5077039;28;19912;-88
2023/06/19 11:27:39;;;;;;;;;;;31.10;99.90;;;;;;5070051;28;20387;-88
2023/06/19 11:30:06;;;;;;;;;;;31.00;99.90;;;;;;5057553;28;19913;-88
2023/06/19 11:32:40;;;;;;;;;;;31.40;99.90;;;;;;5072570;28;19912;-88
2023/06/19 11:35:10;;;;;;;;;;;31.80;99.90;;;;;;5054319;28;19908;-88
2023/06/19 11:37:37;;;;;;;;;;;31.90;99.90;;;;;;5083021;28;19908;-88
2023/06/19 11:40:23;;;;;;;;;;;31.90;99.90;;;;;;5091471;28;19911;-88
2023/06/19 11:42:58;;;;;;;;;;;31.20;99.90;;;;;;5089111;28;19908;-88
2023/06/19 11:45:24;;;;;;;;;;;30.90;99.90;;;;;;5078496;28;19923;-87
2023/06/19 11:51:53;;;;;;;;;;;30.60;99.90;;;;;;5070483;28;19935;-88
2023/06/19 11:54:20;;;;;;;;;;;30.70;99.90;;;;;;5083026;28;19920;-88
2023/06/19 11:56:47;;;;;;;;;;;30.20;99.90;;;;;;5075793;28;19908;-88
2023/06/19 11:59:14;;;;;;;;;;;30.30;99.90;;;;;;5071052;28;19908;-88
2023/06/19 12:01:39;;;;;;;;;;;30.00;99.90;;;;;;5063827;28;19908;-88
2023/06/19 12:04:05;;;;;;;;;;;30.00;99.90;;;;;;5091057;28;19998;-87
2023/06/19 12:06:31;;;;;;;;;;;29.60;99.90;;;;;;5062846;28;20396;-88
2023/06/19 12:08:56;;;;;;;;;;;29.10;99.90;;;;;;5073175;28;19940;-88
2023/06/19 12:11:22;;;;;;;;;;;29.30;99.90;;;;;;5081930;28;20351;-88
2023/06/19 12:13:48;;;;;;;;;;;28.90;99.90;;;;;;5077200;28;19920;-88
2023/06/19 12:16:14;;;;;;;;;;;28.90;99.90;;;;;;5087340;28;19912;-88
2023/06/19 12:18:40;;;;;;;;;;;29.00;99.90;;;;;;5076134;28;19989;-88
2023/06/19 12:21:06;;;;;;;;;;;29.40;99.90;;;;;;5063568;28;19904;-88
2023/06/19 12:23:31;;;;;;;;;;;29.90;99.90;;;;;;5092653;28;19908;-88
2023/06/19 12:25:57;;;;;;;;;;;29.50;99.90;;;;;;5068646;28;19920;-88
2023/06/19 12:28:23;;;;;;;;;;;29.10;99.90;;;;;;5082072;28;19956;-88
2023/06/19 12:30:51;;;;;;;;;;;29.40;99.90;;;;;;5073760;28;19909;-87
2023/06/19 12:33:20;;;;;;;;;;;29.50;99.90;;;;;;5067902;28;19912;-87
2023/06/19 12:35:46;;;;;;;;;;;29.80;99.90;;;;;;5071837;28;19916;-87
2023/06/19 12:38:12;;;;;;;;;;;29.90;99.90;;;;;;5083119;28;20366;-88
2023/06/19 12:40:38;;;;;;;;;;;30.20;99.90;;;;;;5056842;28;19909;-88
2023/06/19 12:43:04;;;;;;;;;;;30.50;99.90;;;;;;5079842;28;19912;-88
2023/06/19 12:45:30;;;;;;;;;;;30.70;99.90;;;;;;5074825;28;19908;-87
2023/06/19 12:47:55;;;;;;;;;;;31.10;99.90;;;;;;5083468;28;20438;-87
2023/06/19 12:50:22;;;;;;;;;;;31.70;99.60;;;;;;5067871;28;19908;-87
2023/06/19 12:52:48;;;;;;;;;;;32.40;98.50;;;;;;5083272;28;19908;-88
2023/06/19 12:55:14;;;;;;;;;;;32.10;97.50;;;;;;5059643;28;20401;-87
2023/06/19 12:57:40;;;;;;;;;;;31.40;97.40;;;;;;5080107;28;19904;-88
2023/06/19 13:00:10;;;;;;;;;;;31.00;97.60;;;;;;5056372;28;21030;-88
2023/06/19 13:02:35;;;;;;;;;;;30.90;97.10;;;;;;5084697;28;20267;-87
2023/06/19 13:05:01;;;;;;;;;;;31.00;97.90;;;;;;5072772;28;19915;-88
2023/06/19 13:07:26;;;;;;;;;;;31.40;96.70;;;;;;5059080;28;19926;-87
2023/06/19 13:09:52;;;;;;;;;;;31.40;96.40;;;;;;5071322;28;19915;-88
2023/06/19 13:12:17;;;;;;;;;;;31.50;95.70;;;;;;5075452;28;20252;-87
2023/06/19 13:14:43;;;;;;;;;;;31.20;95.70;;;;;;5070039;28;19909;-87
2023/06/19 13:17:09;;;;;;;;;;;30.20;96.70;;;;;;5084710;28;20371;-87
2023/06/19 13:19:36;;;;;;;;;;;30.10;97.20;;;;;;5071540;28;19909;-87
2023/06/19 13:22:01;;;;;;;;;;;30.10;98.10;;;;;;5070586;28;19908;-87
2023/06/19 13:24:27;;;;;;;;;;;30.50;97.40;;;;;;5071422;28;19929;-87
2023/06/19 13:26:53;;;;;;;;;;;31.20;96.70;;;;;;5076469;28;19909;-87
2023/06/19 13:29:18;;;;;;;;;;;31.00;96.50;;;;;;5089776;28;19907;-87
2023/06/19 13:31:44;;;;;;;;;;;30.70;96.20;;;;;;5071388;28;19920;-87
2023/06/19 13:34:10;;;;;;;;;;;31.40;96.10;;;;;;5065167;28;19953;-87
2023/06/19 13:36:35;;;;;;;;;;;31.90;95.60;;;;;;5086396;28;19991;-88
2023/06/19 13:39:02;;;;;;;;;;;32.30;95.10;;;;;;5081640;28;20279;-86
2023/06/19 13:41:30;;;;;;;;;;;32.00;95.30;;;;;;5068606;28;19916;-87
2023/06/19 13:44:33;;;;;;;;;;;31.70;95.10;;;;;;5078628;28;19908;-86
2023/06/19 13:47:00;;;;;;;;;;;31.80;95.10;;;;;;5075442;28;19908;-87
2023/06/19 13:49:25;;;;;;;;;;;31.30;95.50;;;;;;5068915;28;19915;-88
2023/06/19 13:51:51;;;;;;;;;;;30.60;95.90;;;;;;5075214;28;19908;-87
2023/06/19 13:54:17;;;;;;;;;;;30.00;96.50;;;;;;5065132;28;19930;-87
2023/06/19 13:56:42;;;;;;;;;;;29.90;97.60;;;;;;5072132;28;19913;-87
2023/06/19 13:59:08;;;;;;;;;;;30.10;97.40;;;;;;5085986;28;19908;-87
2023/06/19 14:01:34;;;;;;;;;;;30.50;97.30;;;;;;5080614;28;20003;-87
2023/06/19 14:03:59;;;;;;;;;;;30.50;97.50;;;;;;5056151;28;19916;-87
2023/06/19 14:06:25;;;;;;;;;;;31.00;96.30;;;;;;5082837;28;20010;-86
2023/06/19 14:08:51;;;;;;;;;;;30.80;95.50;;;;;;5063018;28;20272;-87
2023/06/19 14:11:17;;;;;;;;;;;31.00;96.20;;;;;;5062749;28;19915;-87
2023/06/19 14:13:43;;;;;;;;;;;31.60;94.90;;;;;;5080144;28;20338;-87
2023/06/19 14:16:09;;;;;;;;;;;32.00;94.40;;;;;;5068439;28;19912;-88
2023/06/19 14:18:36;;;;;;;;;;;32.10;92.90;;;;;;5076349;28;19935;-87
2023/06/19 14:21:02;;;;;;;;;;;32.10;93.10;;;;;;5075868;28;19931;-87
2023/06/19 14:23:28;;;;;;;;;;;32.30;93.00;;;;;;5063198;28;20347;-87
2023/06/19 14:29:30;;;;;;;4.85;4.45;;;32.30;92.70;;;;;;5069735;28;20034;-87